Time;durP1;ratioP1;P1;durP2;ratioP2;P2;SDS_P1;SDS_P2;PMS_P1;PMS_P2;Temp;Humidity;BMP_temperature;BMP_pressure;BME280_temperature;BME280_humidity;BME280_pressure;Samples;Min_cycle;Max_cycle;Signal;HPM_P1;HPM_P2
2022/12/28 00:01:08;;;;;;;5.30;4.80;;;;;;;4.01;100.00;99289.06;4196494;28;20234;-58
2022/12/28 00:03:10;;;;;;;3.90;3.50;;;;;;;4.01;100.00;99295.28;4215945;27;20690;-57
2022/12/28 00:05:11;;;;;;;5.20;4.70;;;;;;;4.08;100.00;99279.13;4219535;27;20225;-56
2022/12/28 00:07:13;;;;;;;4.53;4.20;;;;;;;4.14;100.00;99273.78;4205245;28;20207;-57
2022/12/28 00:09:15;;;;;;;4.55;4.25;;;;;;;4.10;100.00;99277.94;4202537;28;20245;-58
2022/12/28 00:11:18;;;;;;;3.63;3.33;;;;;;;4.08;100.00;99263.72;4202214;28;20301;-58
2022/12/28 00:13:32;;;;;;;8.00;4.30;;;;;;;4.16;100.00;99258.22;4207134;27;20265;-58
2022/12/28 00:15:36;;;;;;;5.15;4.65;;;;;;;4.22;100.00;99260.16;4216930;27;20285;-57
2022/12/28 00:17:37;;;;;;;7.13;4.55;;;;;;;4.25;100.00;99248.91;4216964;27;20603;-57
2022/12/28 00:19:39;;;;;;;5.75;5.28;;;;;;;4.31;100.00;99241.88;4198217;28;20223;-56
2022/12/28 00:21:42;;;;;;;5.47;4.97;;;;;;;4.30;100.00;99243.78;4187869;28;20238;-56
2022/12/28 00:23:47;;;;;;;5.82;5.28;;;;;;;4.29;100.00;99241.25;4219324;27;20251;-57
2022/12/28 00:25:49;;;;;;;6.25;5.07;;;;;;;4.27;100.00;99230.59;4189412;28;20199;-57
2022/12/28 00:27:51;;;;;;;5.63;5.03;;;;;;;4.37;100.00;99228.41;4200166;28;20211;-57
2022/12/28 00:29:53;;;;;;;7.63;4.75;;;;;;;4.38;100.00;99215.69;4205060;28;20582;-57
2022/12/28 00:31:54;;;;;;;3.95;3.65;;;;;;;4.37;100.00;99209.47;4186711;28;20235;-56
2022/12/28 00:33:56;;;;;;;4.85;4.55;;;;;;;4.40;100.00;99209.06;4183179;28;20368;-57
2022/12/28 00:36:00;;;;;;;4.07;3.75;;;;;;;4.41;100.00;99212.63;4218071;27;20288;-57
2022/12/28 00:38:02;;;;;;;4.43;3.92;;;;;;;4.43;100.00;99202.41;4205613;28;20214;-57
2022/12/28 00:40:04;;;;;;;5.70;5.05;;;;;;;4.44;100.00;99204.94;4199343;28;20273;-57
2022/12/28 00:42:06;;;;;;;3.83;3.50;;;;;;;4.48;100.00;99195.38;4188572;28;20401;-56
2022/12/28 00:44:08;;;;;;;4.80;3.75;;;;;;;4.51;100.00;99189.56;4205738;28;20298;-57
2022/12/28 00:46:09;;;;;;;4.30;3.95;;;;;;;4.59;100.00;99185.91;4217141;28;20217;-58
2022/12/28 00:48:11;;;;;;;4.47;3.55;;;;;;;4.57;100.00;99183.38;4201437;28;23243;-57
2022/12/28 00:50:13;;;;;;;4.80;4.40;;;;;;;4.60;100.00;99180.25;4206302;28;20238;-57
2022/12/28 00:52:15;;;;;;;10.40;5.15;;;;;;;4.62;100.00;99169.25;4198656;28;20206;-57
2022/12/28 00:54:16;;;;;;;7.10;5.38;;;;;;;4.66;100.00;99168.63;4186329;28;20212;-57
2022/12/28 00:56:20;;;;;;;4.13;3.72;;;;;;;4.66;100.00;99174.06;4201569;28;20202;-57
2022/12/28 00:58:22;;;;;;;5.43;4.05;;;;;;;4.68;100.00;99169.28;4220087;27;20216;-58
2022/12/28 01:00:23;;;;;;;6.28;4.53;;;;;;;4.75;100.00;99162.06;4220184;27;20257;-57
2022/12/28 01:02:25;;;;;;;3.60;3.30;;;;;;;4.79;100.00;99154.38;4217104;28;20640;-57
2022/12/28 01:04:27;;;;;;;4.95;4.35;;;;;;;4.80;100.00;99156.84;4198082;28;20286;-56
2022/12/28 01:06:29;;;;;;;5.95;4.28;;;;;;;4.77;100.00;99146.41;4185457;28;20199;-57
2022/12/28 01:08:30;;;;;;;4.60;4.20;;;;;;;4.85;100.00;99143.56;4197959;28;20323;-57
2022/12/28 01:10:32;;;;;;;5.80;4.63;;;;;;;4.84;100.00;99135.59;4194330;28;20210;-57
2022/12/28 01:12:35;;;;;;;4.30;3.90;;;;;;;4.87;100.00;99140.66;4199837;28;20263;-58
2022/12/28 01:14:38;;;;;;;5.00;4.60;;;;;;;4.88;100.00;99137.72;4179116;28;20211;-57
2022/12/28 01:16:40;;;;;;;4.80;4.35;;;;;;;4.93;100.00;99145.28;4198256;28;20226;-58
2022/12/28 01:18:43;;;;;;;4.25;3.88;;;;;;;4.99;100.00;99134.47;4200414;28;20223;-57
2022/12/28 01:20:45;;;;;;;5.35;4.38;;;;;;;5.02;100.00;99139.50;4183716;28;20227;-58
2022/12/28 01:22:47;;;;;;;7.78;5.20;;;;;;;5.03;100.00;99128.44;4197632;28;20207;-57
2022/12/28 01:24:48;;;;;;;5.55;5.07;;;;;;;5.06;100.00;99116.34;4201905;28;20290;-58
2022/12/28 01:26:50;;;;;;;5.22;4.82;;;;;;;5.04;100.00;99111.13;4212054;28;20310;-57
2022/12/28 01:28:52;;;;;;;5.50;5.00;;;;;;;5.06;100.00;99112.81;4194231;28;20265;-58
2022/12/28 01:30:54;;;;;;;4.43;4.03;;;;;;;5.11;100.00;99105.75;4198510;28;20203;-56
2022/12/28 01:32:58;;;;;;;5.75;5.20;;;;;;;5.11;100.00;99111.16;4187573;28;20213;-58
2022/12/28 01:35:00;;;;;;;4.63;4.22;;;;;;;5.08;100.00;99108.84;4205595;28;20215;-58
2022/12/28 01:37:02;;;;;;;4.30;3.97;;;;;;;5.05;100.00;99117.38;4185540;28;20681;-57
2022/12/28 01:39:05;;;;;;;4.65;4.25;;;;;;;5.08;100.00;99106.97;4199034;28;20235;-58
2022/12/28 01:41:11;;;;;;;4.72;4.20;;;;;;;5.08;100.00;99111.56;4182844;28;20313;-58
2022/12/28 01:43:13;;;;;;;10.73;4.47;;;;;;;5.10;100.00;99090.50;4204071;28;20817;-58
2022/12/28 01:45:30;;;;;;;4.75;4.10;;;;;;;5.09;100.00;99091.56;4189022;28;20534;-56
2022/12/28 01:47:33;;;;;;;4.50;4.10;;;;;;;5.15;100.00;99112.44;4201966;28;20210;-57
2022/12/28 01:49:35;;;;;;;7.07;4.47;;;;;;;5.25;100.00;99131.91;4214958;28;20749;-57
2022/12/28 01:52:14;;;;;;;4.20;3.85;;;;;;;5.21;100.00;99115.19;4202319;28;20261;-57
2022/12/28 01:54:16;;;;;;;4.97;4.53;;;;;;;5.23;100.00;99104.13;4189931;28;20203;-56
2022/12/28 01:56:18;;;;;;;8.02;5.18;;;;;;;5.30;100.00;99113.97;4186106;28;20234;-57
2022/12/28 01:58:22;;;;;;;10.30;5.70;;;;;;;5.31;100.00;99107.53;4194632;28;20234;-57
2022/12/28 02:00:25;;;;;;;5.05;4.22;;;;;;;5.34;100.00;99103.53;4196178;28;20213;-58
2022/12/28 02:02:28;;;;;;;5.00;4.57;;;;;;;5.35;100.00;99097.91;4218158;27;20205;-58
2022/12/28 02:04:30;;;;;;;8.43;6.45;;;;;;;5.37;100.00;99095.00;4217894;27;20343;-58
2022/12/28 02:06:32;;;;;;;5.20;4.72;;;;;;;5.37;100.00;99098.53;4200997;28;20304;-58
2022/12/28 02:08:59;;;;;;;4.25;3.72;;;;;;;5.40;100.00;99097.31;4217562;28;20239;-58
2022/12/28 02:11:01;;;;;;;4.47;4.07;;;;;;;5.41;100.00;99093.53;4207133;28;20651;-57
2022/12/28 02:13:03;;;;;;;5.97;4.78;;;;;;;5.43;100.00;99083.34;4204228;28;20297;-57
2022/12/28 02:15:05;;;;;;;5.32;4.82;;;;;;;5.45;100.00;99078.53;4217358;27;20325;-57
2022/12/28 02:17:08;;;;;;;4.07;3.78;;;;;;;5.41;100.00;99077.25;4188816;28;20652;-57
2022/12/28 02:19:13;;;;;;;6.50;4.05;;;;;;;5.46;100.00;99072.06;4216877;27;20240;-57
2022/12/28 02:21:27;;;;;;;4.53;3.75;;;;;;;5.46;100.00;99063.94;4203691;28;20260;-56
2022/12/28 02:23:39;;;;;;;4.60;3.72;;;;;;;5.45;100.00;99067.69;4204839;28;20832;-59
2022/12/28 02:25:49;;;;;;;4.28;3.97;;;;;;;5.47;100.00;99063.75;4191781;28;20240;-58
2022/12/28 02:28:06;;;;;;;5.03;4.57;;;;;;;5.50;100.00;99073.34;4202182;28;20241;-56
2022/12/28 02:30:10;;;;;;;4.97;4.03;;;;;;;5.51;100.00;99065.00;4198891;28;20226;-57
2022/12/28 02:32:19;;;;;;;4.20;3.85;;;;;;;5.56;100.00;99056.25;4202808;28;20207;-58
2022/12/28 02:34:31;;;;;;;3.80;3.30;;;;;;;5.62;100.00;99050.81;4205864;28;20203;-57
2022/12/28 02:36:37;;;;;;;4.68;3.67;;;;;;;5.61;100.00;99045.59;4205295;28;20285;-58
2022/12/28 02:38:43;;;;;;;2.83;2.58;;;;;;;5.64;100.00;99037.06;4201997;28;20256;-58
2022/12/28 02:40:55;;;;;;;3.85;3.45;;;;;;;5.70;100.00;99028.91;4217065;28;20853;-57
2022/12/28 02:42:57;;;;;;;3.70;3.33;;;;;;;5.65;100.00;99023.28;4203145;28;20234;-58
2022/12/28 02:52:37;;;;;;;3.53;3.33;;;;;;;5.70;100.00;99019.94;4217736;27;20199;-57
2022/12/28 02:57:55;;;;;;;3.20;2.90;;;;;;;5.68;100.00;99022.00;4187370;28;20237;-57
2022/12/28 03:00:09;;;;;;;2.90;2.55;;;;;;;5.73;100.00;99017.66;4172555;28;20255;-57
2022/12/28 03:02:32;;;;;;;3.35;3.05;;;;;;;5.73;100.00;99014.09;4174725;28;20270;-57
2022/12/28 03:04:59;;;;;;;5.20;3.65;;;;;;;5.79;100.00;99018.69;4219010;27;21106;-57
2022/12/28 03:09:47;;;;;;;2.53;2.33;;;;;;;5.79;100.00;99007.81;4215736;28;20261;-57
2022/12/28 03:11:59;;;;;;;3.38;3.08;;;;;;;5.82;100.00;99000.13;4206184;28;20206;-57
2022/12/28 03:14:08;;;;;;;3.05;2.78;;;;;;;5.86;100.00;99008.69;4222507;27;20874;-57
2022/12/28 03:16:24;;;;;;;2.58;2.38;;;;;;;5.81;100.00;99011.19;4191736;28;20237;-57
2022/12/28 03:32:40;;;;;;;5.10;2.83;;;;;;;5.96;100.00;98976.53;4205387;28;20226;-56
2022/12/28 03:34:42;;;;;;;4.10;3.28;;;;;;;5.97;100.00;98975.50;4181090;28;20215;-57
2022/12/28 03:36:51;;;;;;;3.17;2.88;;;;;;;6.02;100.00;98970.28;4218942;27;20253;-56
2022/12/28 03:39:03;;;;;;;2.60;2.13;;;;;;;5.97;100.00;98957.28;4202634;28;20302;-57
2022/12/28 03:41:13;;;;;;;2.53;2.20;;;;;;;6.05;100.00;98958.97;4219179;27;20257;-57
2022/12/28 03:46:00;;;;;;;4.65;2.72;;;;;;;6.11;100.00;98963.56;4217309;27;20206;-57
2022/12/28 03:48:02;;;;;;;2.58;2.38;;;;;;;6.06;100.00;98960.63;4218069;27;20641;-57
2022/12/28 03:50:05;;;;;;;2.40;2.30;;;;;;;6.10;100.00;98959.19;4213787;28;20953;-57
2022/12/28 03:52:08;;;;;;;1.92;1.83;;;;;;;6.12;100.00;98954.38;4205132;28;20298;-58
2022/12/28 03:54:13;;;;;;;2.90;2.70;;;;;;;6.13;100.00;98953.31;4203558;28;20253;-56
2022/12/28 03:56:18;;;;;;;3.25;1.88;;;;;;;6.10;100.00;98961.91;4189306;28;20203;-57
2022/12/28 03:58:20;;;;;;;2.13;1.92;;;;;;;6.11;100.00;98958.13;4204527;28;20230;-58
2022/12/28 04:00:22;;;;;;;5.63;2.70;;;;;;;6.14;100.00;98946.84;4217046;27;20234;-58
2022/12/28 04:02:23;;;;;;;4.43;2.35;;;;;;;6.15;100.00;98964.81;4203408;28;20229;-57
2022/12/28 04:04:25;;;;;;;3.85;2.50;;;;;;;6.13;100.00;98958.75;4216230;28;20286;-57
2022/12/28 04:06:27;;;;;;;2.35;2.15;;;;;;;6.19;100.00;98957.91;4218624;27;20245;-56
2022/12/28 04:08:32;;;;;;;4.20;2.67;;;;;;;6.15;100.00;98965.66;4202673;28;20213;-56
2022/12/28 04:10:33;;;;;;;1.92;1.65;;;;;;;6.16;100.00;98955.63;4199602;28;20234;-57
2022/12/28 04:12:35;;;;;;;2.83;2.63;;;;;;;6.15;100.00;98960.22;4197183;28;20204;-57
2022/12/28 04:14:37;;;;;;;2.35;2.15;;;;;;;6.13;100.00;98950.59;4186976;28;20226;-58
2022/12/28 04:16:38;;;;;;;6.57;3.30;;;;;;;6.12;100.00;98948.94;4201268;28;20211;-58
2022/12/28 04:18:40;;;;;;;3.05;2.20;;;;;;;6.16;100.00;98945.56;4200419;28;20229;-57
2022/12/28 04:20:42;;;;;;;2.35;2.22;;;;;;;6.14;100.00;98935.97;4218002;27;20384;-57
2022/12/28 04:22:44;;;;;;;2.80;2.60;;;;;;;6.15;100.00;98946.63;4214811;27;20309;-58
2022/12/28 04:24:46;;;;;;;4.18;2.40;;;;;;;6.22;100.00;98935.75;4187503;28;20226;-58
2022/12/28 04:26:47;;;;;;;2.22;2.13;;;;;;;6.25;100.00;98938.03;4213149;28;20211;-57
2022/12/28 04:28:49;;;;;;;2.63;2.47;;;;;;;6.20;100.00;98943.28;4196904;28;20230;-56
2022/12/28 04:30:51;;;;;;;2.38;2.17;;;;;;;6.20;100.00;98935.13;4218249;27;20293;-56
2022/12/28 04:32:54;;;;;;;6.13;2.95;;;;;;;6.16;100.00;98928.47;4199276;28;20315;-57
2022/12/28 04:34:56;;;;;;;2.40;1.95;;;;;;;6.19;100.00;98934.31;4218169;28;20813;-58
2022/12/28 04:36:57;;;;;;;1.77;1.67;;;;;;;6.27;100.00;98935.94;4202133;28;20326;-58
2022/12/28 04:38:59;;;;;;;1.67;1.58;;;;;;;6.20;100.00;98935.13;4214839;27;21849;-57
2022/12/28 04:41:01;;;;;;;12.25;1.83;;;;;;;6.22;100.00;98927.63;4203525;28;20280;-58
2022/12/28 04:43:03;;;;;;;2.35;2.05;;;;;;;6.26;100.00;98931.56;4218630;27;20724;-58
2022/12/28 04:45:06;;;;;;;1.75;1.65;;;;;;;6.31;100.00;98931.75;4212521;27;20290;-58
2022/12/28 04:47:07;;;;;;;2.63;2.42;;;;;;;6.27;100.00;98930.50;4185954;28;20295;-57
2022/12/28 04:49:09;;;;;;;3.92;2.65;;;;;;;6.29;100.00;98923.00;4200373;28;20219;-58
2022/12/28 04:51:15;;;;;;;2.45;2.33;;;;;;;6.28;100.00;98926.75;4181980;28;20204;-57
2022/12/28 04:53:17;;;;;;;2.67;2.47;;;;;;;6.29;100.00;98917.56;4214312;27;20250;-56
2022/12/28 04:55:19;;;;;;;3.08;2.67;;;;;;;6.30;100.00;98919.22;4200341;28;20211;-57
2022/12/28 04:57:33;;;;;;;2.75;2.33;;;;;;;6.34;100.00;98906.88;4214883;27;20267;-57
2022/12/28 04:59:35;;;;;;;2.58;1.55;;;;;;;6.34;100.00;98898.72;4188484;28;20262;-57
2022/12/28 05:01:37;;;;;;;2.47;2.28;;;;;;;6.36;100.00;98904.78;4203356;28;20726;-56
2022/12/28 05:03:41;;;;;;;2.17;2.00;;;;;;;6.40;100.00;98904.16;4200108;28;20628;-59
2022/12/28 05:05:42;;;;;;;2.15;1.90;;;;;;;6.40;100.00;98897.84;4199061;28;21013;-58
2022/12/28 05:07:44;;;;;;;2.20;2.03;;;;;;;6.42;100.00;98901.22;4217420;27;20201;-56
2022/12/28 05:09:46;;;;;;;4.97;2.20;;;;;;;6.44;100.00;98890.97;4203696;28;20300;-58
2022/12/28 05:11:47;;;;;;;2.78;1.98;;;;;;;6.41;100.00;98897.66;4184681;28;20195;-56
2022/12/28 05:13:49;;;;;;;2.30;1.40;;;;;;;6.36;100.00;98894.72;4217463;27;20311;-56
2022/12/28 05:15:51;;;;;;;2.00;1.90;;;;;;;6.39;100.00;98886.16;4217512;27;20209;-56
2022/12/28 05:17:54;;;;;;;2.10;1.85;;;;;;;6.44;100.00;98885.53;4198716;28;20211;-57
2022/12/28 05:19:55;;;;;;;1.55;1.45;;;;;;;6.49;100.00;98881.09;4203624;28;20628;-57
2022/12/28 05:21:57;;;;;;;2.60;2.25;;;;;;;6.49;100.00;98872.94;4196971;28;20328;-56
2022/12/28 05:23:59;;;;;;;2.17;2.08;;;;;;;6.54;100.00;98875.00;4204422;28;20260;-57
2022/12/28 05:26:00;;;;;;;1.85;1.70;;;;;;;6.51;100.00;98875.44;4201858;28;20258;-57
2022/12/28 05:28:02;;;;;;;2.10;1.92;;;;;;;6.47;100.00;98876.91;4203999;28;20242;-56
2022/12/28 05:30:05;;;;;;;4.35;2.30;;;;;;;6.52;100.00;98875.25;4217536;28;20237;-57
2022/12/28 05:32:07;;;;;;;2.38;2.08;;;;;;;6.53;100.00;98876.06;4202503;28;20293;-57
2022/12/28 05:34:08;;;;;;;2.50;1.92;;;;;;;6.49;100.00;98880.28;4199597;28;20217;-55
2022/12/28 05:36:13;;;;;;;2.30;1.88;;;;;;;6.50;100.00;98877.31;4186269;28;20294;-57
2022/12/28 05:38:15;;;;;;;2.67;1.65;;;;;;;6.51;100.00;98875.44;4196134;28;21164;-57
2022/12/28 05:40:16;;;;;;;3.38;2.13;;;;;;;6.50;100.00;98881.94;4182274;28;20342;-57
2022/12/28 05:42:18;;;;;;;1.48;1.38;;;;;;;6.53;100.00;98876.91;4214371;28;20281;-57
2022/12/28 05:44:20;;;;;;;2.42;1.88;;;;;;;6.56;100.00;98875.66;4203864;28;20211;-57
2022/12/28 05:46:28;;;;;;;2.33;2.13;;;;;;;6.60;100.00;98882.31;4200997;28;20203;-56
2022/12/28 05:48:31;;;;;;;3.13;2.28;;;;;;;6.63;100.00;98881.88;4216022;28;21144;-55
2022/12/28 05:50:33;;;;;;;2.38;2.00;;;;;;;6.59;100.00;98875.19;4186074;28;20273;-57
2022/12/28 05:52:35;;;;;;;2.70;2.50;;;;;;;6.63;100.00;98882.72;4202478;28;20235;-57
2022/12/28 05:54:39;;;;;;;1.83;1.70;;;;;;;6.60;100.00;98871.44;4181659;28;20203;-57
2022/12/28 05:56:41;;;;;;;8.65;1.83;;;;;;;6.62;100.00;98874.78;4183838;28;20239;-57
2022/12/28 05:58:43;;;;;;;2.30;1.90;;;;;;;6.61;100.00;98867.66;4197117;28;20263;-57
2022/12/28 06:00:45;;;;;;;2.78;1.85;;;;;;;6.62;100.00;98872.06;4213503;28;20628;-57
2022/12/28 06:02:47;;;;;;;1.15;1.00;;;;;;;6.65;100.00;98863.47;4201130;28;20302;-57
2022/12/28 06:04:49;;;;;;;2.30;1.83;;;;;;;6.65;100.00;98866.19;4204720;28;20271;-57
2022/12/28 06:06:50;;;;;;;2.03;1.55;;;;;;;6.63;100.00;98865.56;4187126;28;20218;-56
2022/12/28 06:08:52;;;;;;;1.48;1.38;;;;;;;6.64;100.00;98865.38;4217386;28;20620;-57
2022/12/28 06:10:59;;;;;;;2.25;1.85;;;;;;;6.63;100.00;98871.84;4198484;28;21219;-57
2022/12/28 06:13:01;;;;;;;2.25;2.15;;;;;;;6.64;100.00;98872.69;4196781;28;20225;-57
2022/12/28 06:15:03;;;;;;;2.50;1.73;;;;;;;6.67;100.00;98867.63;4186480;28;20915;-56
2022/12/28 06:17:04;;;;;;;1.63;1.52;;;;;;;6.67;100.00;98877.66;4204084;28;20263;-56
2022/12/28 06:19:08;;;;;;;1.60;1.50;;;;;;;6.62;100.00;98869.34;4215228;28;20234;-57
2022/12/28 06:21:16;;;;;;;1.45;1.35;;;;;;;6.63;100.00;98876.44;4190820;28;20207;-56
2022/12/28 06:23:18;;;;;;;2.10;1.90;;;;;;;6.62;100.00;98874.78;4199190;28;20615;-57
2022/12/28 06:25:20;;;;;;;2.63;1.80;;;;;;;6.69;100.00;98878.31;4216682;28;20306;-57
2022/12/28 06:27:21;;;;;;;4.45;1.70;;;;;;;6.65;100.00;98868.91;4180944;28;20287;-57
2022/12/28 06:29:23;;;;;;;2.15;2.03;;;;;;;6.61;100.00;98857.63;4179141;28;20237;-57
2022/12/28 06:31:27;;;;;;;1.77;1.67;;;;;;;6.57;100.00;98861.00;4200539;28;20721;-57
2022/12/28 06:33:29;;;;;;;2.17;2.08;;;;;;;6.60;100.00;98855.13;4213715;28;20283;-57
2022/12/28 06:35:31;;;;;;;1.60;1.50;;;;;;;6.61;100.00;98840.47;4199287;28;20213;-57
2022/12/28 06:37:33;;;;;;;2.08;1.58;;;;;;;6.57;100.00;98837.34;4200646;28;20265;-57
2022/12/28 06:39:34;;;;;;;1.73;1.63;;;;;;;6.62;100.00;98842.16;4184428;28;20249;-57
2022/12/28 06:41:36;;;;;;;4.55;1.67;;;;;;;6.58;100.00;98835.47;4196889;28;20208;-57
2022/12/28 06:43:40;;;;;;;2.50;2.15;;;;;;;6.60;100.00;98838.81;4180626;28;20259;-57
2022/12/28 06:45:41;;;;;;;3.28;1.95;;;;;;;6.65;100.00;98847.16;4216123;28;20221;-56
2022/12/28 06:47:43;;;;;;;2.10;2.00;;;;;;;6.68;100.00;98850.28;4200900;28;20893;-57
2022/12/28 06:49:45;;;;;;;2.08;1.58;;;;;;;6.65;100.00;98831.69;4202077;28;20296;-59
2022/12/28 06:51:47;;;;;;;1.63;1.52;;;;;;;6.63;100.00;98839.19;4218476;27;20228;-55
2022/12/28 06:53:50;;;;;;;4.25;2.00;;;;;;;6.65;100.00;98841.72;4200819;28;20211;-56
2022/12/28 06:56:00;;;;;;;2.20;2.00;;;;;;;6.67;100.00;98834.16;4203549;28;20230;-57
2022/12/28 06:58:02;;;;;;;1.70;1.60;;;;;;;6.65;100.00;98830.84;4201063;28;20209;-57
2022/12/28 07:00:04;;;;;;;2.78;2.25;;;;;;;6.69;100.00;98834.81;4216554;27;20277;-56
2022/12/28 07:02:08;;;;;;;2.00;1.50;;;;;;;6.65;100.00;98825.41;4204653;28;20238;-56
2022/12/28 07:04:09;;;;;;;2.05;1.70;;;;;;;6.58;100.00;98825.44;4185874;28;20208;-57
2022/12/28 07:06:12;;;;;;;3.40;1.75;;;;;;;6.62;100.00;98836.72;4183578;28;20584;-59
2022/12/28 07:08:14;;;;;;;1.83;1.70;;;;;;;6.55;100.00;98827.78;4197210;28;20210;-57
2022/12/28 07:10:16;;;;;;;2.28;2.03;;;;;;;6.61;100.00;98824.16;4200989;28;20705;-56
2022/12/28 07:12:17;;;;;;;3.67;2.03;;;;;;;6.59;100.00;98837.16;4199222;28;21673;-57
2022/12/28 07:14:19;;;;;;;1.90;1.70;;;;;;;6.56;100.00;98827.53;4198701;28;20630;-57
2022/12/28 07:16:22;;;;;;;2.83;1.40;;;;;;;6.58;100.00;98822.72;4203800;28;20205;-56
2022/12/28 07:18:24;;;;;;;2.33;1.92;;;;;;;6.53;100.00;98835.28;4201215;28;21709;-56
2022/12/28 07:20:26;;;;;;;2.75;1.95;;;;;;;6.53;100.00;98830.69;4199228;28;20733;-57
2022/12/28 07:22:27;;;;;;;2.38;1.55;;;;;;;6.57;100.00;98823.75;4185744;28;20277;-57
2022/12/28 07:24:29;;;;;;;1.83;1.73;;;;;;;6.55;100.00;98816.91;4199475;28;20713;-56
2022/12/28 07:26:32;;;;;;;1.58;1.48;;;;;;;6.52;100.00;98836.34;4206520;28;20219;-57
2022/12/28 07:28:45;;;;;;;2.58;1.90;;;;;;;6.54;100.00;98829.66;4216209;28;20279;-57
2022/12/28 07:30:47;;;;;;;1.80;1.20;;;;;;;6.52;100.00;98820.88;4205388;28;20250;-57
2022/12/28 07:32:48;;;;;;;1.90;1.80;;;;;;;6.60;100.00;98817.91;4201430;28;20214;-56
2022/12/28 07:34:50;;;;;;;4.90;1.60;;;;;;;6.65;100.00;98822.69;4203155;28;20394;-57
2022/12/28 07:36:52;;;;;;;2.25;1.48;;;;;;;6.65;100.00;98817.25;4219724;27;20261;-55
2022/12/28 07:38:54;;;;;;;1.70;1.60;;;;;;;6.63;100.00;98817.44;4201194;28;20289;-57
2022/12/28 07:41:16;;;;;;;2.00;1.90;;;;;;;6.62;100.00;98821.22;4204911;28;20301;-57
2022/12/28 07:43:18;;;;;;;1.45;1.35;;;;;;;6.69;100.00;98821.22;4219955;27;20210;-57
2022/12/28 07:45:19;;;;;;;2.00;1.90;;;;;;;6.62;100.00;98815.78;4199865;28;20231;-56
2022/12/28 07:47:21;;;;;;;1.98;1.80;;;;;;;6.66;100.00;98817.03;4204214;28;21965;-56
2022/12/28 07:49:23;;;;;;;1.75;1.65;;;;;;;6.68;100.00;98824.97;4218467;27;20310;-56
2022/12/28 07:51:33;;;;;;;6.65;1.77;;;;;;;6.73;100.00;98827.84;4203680;28;20212;-55
2022/12/28 07:53:36;;;;;;;2.83;1.67;;;;;;;6.67;100.00;98836.88;4214050;28;20293;-57
2022/12/28 07:55:39;;;;;;;1.42;1.33;;;;;;;6.66;100.00;98827.91;4197828;28;20257;-57
2022/12/28 07:57:40;;;;;;;1.35;1.25;;;;;;;6.72;100.00;98837.06;4188572;28;20670;-57
2022/12/28 07:59:42;;;;;;;2.03;1.92;;;;;;;6.72;100.00;98831.63;4185397;28;20262;-56
2022/12/28 08:01:44;;;;;;;6.28;1.52;;;;;;;6.74;100.00;98834.97;4204078;28;20289;-57
2022/12/28 08:03:46;;;;;;;2.03;1.35;;;;;;;6.71;100.00;98829.97;4218448;27;20693;-56
2022/12/28 08:05:48;;;;;;;1.60;1.50;;;;;;;6.70;100.00;98823.69;4216033;28;20779;-56
2022/12/28 08:07:50;;;;;;;1.85;1.75;;;;;;;6.72;100.00;98827.03;4196831;28;20231;-56
2022/12/28 08:09:51;;;;;;;1.65;1.55;;;;;;;6.71;100.00;98832.69;4199322;28;20227;-56
2022/12/28 08:11:53;;;;;;;1.95;1.85;;;;;;;6.78;100.00;98828.03;4200462;28;20219;-57
2022/12/28 08:13:56;;;;;;;5.93;1.50;;;;;;;6.77;100.00;98824.47;4199548;28;20259;-57
2022/12/28 08:15:58;;;;;;;2.60;2.03;;;;;;;6.85;100.00;98824.25;4203733;28;20211;-56
2022/12/28 08:18:00;;;;;;;1.67;1.33;;;;;;;6.86;100.00;98819.63;4215917;28;20588;-57
2022/12/28 08:20:02;;;;;;;3.40;1.77;;;;;;;6.86;100.00;98827.78;4200156;28;20254;-57
2022/12/28 08:22:04;;;;;;;2.28;2.05;;;;;;;6.83;100.00;98823.59;4219803;27;20226;-56
2022/12/28 08:24:06;;;;;;;2.47;2.33;;;;;;;6.88;100.00;98825.69;4208176;28;20330;-57
2022/12/28 08:26:16;;;;;;;1.40;1.30;;;;;;;6.88;100.00;98831.13;4202277;28;20241;-55
2022/12/28 08:28:18;;;;;;;2.85;2.15;;;;;;;6.90;100.00;98823.59;4199286;28;20215;-57
2022/12/28 08:30:20;;;;;;;1.80;1.70;;;;;;;6.86;100.00;98817.75;4202930;28;20781;-57
2022/12/28 08:32:21;;;;;;;2.22;2.03;;;;;;;6.92;100.00;98818.75;4197332;28;20844;-57
2022/12/28 08:34:25;;;;;;;1.60;1.50;;;;;;;6.91;100.00;98811.66;4219931;27;20627;-56
2022/12/28 08:36:28;;;;;;;1.60;1.50;;;;;;;6.93;100.00;98806.81;4198706;28;20294;-57
2022/12/28 08:38:30;;;;;;;1.60;1.50;;;;;;;6.93;100.00;98813.09;4216643;28;20206;-57
2022/12/28 08:40:32;;;;;;;3.60;2.13;;;;;;;6.89;100.00;98806.41;4202469;28;20710;-57
2022/12/28 08:42:34;;;;;;;1.73;1.63;;;;;;;6.92;100.00;98796.97;4200766;28;21383;-56
2022/12/28 08:44:36;;;;;;;1.75;1.65;;;;;;;6.92;100.00;98802.44;4202228;28;20252;-57
2022/12/28 08:46:39;;;;;;;5.78;1.90;;;;;;;6.93;100.00;98801.38;4215717;27;20297;-56
2022/12/28 08:48:42;;;;;;;1.60;1.50;;;;;;;6.96;100.00;98800.94;4204428;28;20242;-56
2022/12/28 08:50:43;;;;;;;1.67;1.58;;;;;;;6.98;100.00;98804.28;4200958;28;20286;-56
2022/12/28 08:52:45;;;;;;;2.70;1.58;;;;;;;7.02;100.00;98786.47;4187087;28;20286;-57
2022/12/28 08:54:47;;;;;;;3.58;2.15;;;;;;;7.00;100.00;98786.69;4200877;28;20288;-55
2022/12/28 08:56:49;;;;;;;2.90;1.88;;;;;;;6.96;100.00;98782.72;4200197;28;20645;-55
2022/12/28 08:58:51;;;;;;;2.75;1.75;;;;;;;6.97;100.00;98780.84;4202415;28;20289;-56
2022/12/28 09:00:53;;;;;;;2.45;1.70;;;;;;;6.96;100.00;98779.19;4204038;28;20206;-55
2022/12/28 09:02:58;;;;;;;1.13;1.08;;;;;;;7.00;100.00;98774.94;4201041;28;20234;-57
2022/12/28 09:04:59;;;;;;;1.80;1.70;;;;;;;6.95;100.00;98782.97;4186442;28;20626;-56
2022/12/28 09:07:01;;;;;;;2.28;2.10;;;;;;;6.97;100.00;98786.28;4200707;28;20626;-56
2022/12/28 09:09:06;;;;;;;1.60;1.38;;;;;;;6.99;100.00;98789.59;4196673;28;20733;-56
2022/12/28 09:11:11;;;;;;;1.98;1.75;;;;;;;7.03;100.00;98785.41;4200715;28;20280;-56
2022/12/28 09:13:13;;;;;;;1.90;1.73;;;;;;;7.04;100.00;98777.03;4185291;28;20302;-57
2022/12/28 09:15:14;;;;;;;1.65;1.42;;;;;;;7.05;100.00;98783.28;4195299;28;20212;-56
2022/12/28 09:17:16;;;;;;;2.30;1.88;;;;;;;7.05;100.00;98791.44;4197817;28;20215;-57
2022/12/28 09:19:18;;;;;;;3.42;3.13;;;;;;;7.09;100.00;98787.25;4199558;28;20226;-57
2022/12/28 09:21:21;;;;;;;3.35;3.05;;;;;;;7.11;100.00;98787.84;4204222;28;20636;-57
2022/12/28 09:23:25;;;;;;;4.93;3.72;;;;;;;7.11;100.00;98785.13;4189904;28;20270;-57
2022/12/28 09:25:26;;;;;;;3.45;2.50;;;;;;;7.16;100.00;98785.31;4200267;28;20242;-57
2022/12/28 09:27:28;;;;;;;2.88;2.67;;;;;;;7.19;100.00;98793.00;4200162;28;21123;-57
2022/12/28 09:29:30;;;;;;;4.07;3.70;;;;;;;7.21;100.00;98799.91;4188970;28;20233;-57
2022/12/28 09:31:35;;;;;;;1.80;1.70;;;;;;;7.24;100.00;98793.19;4199648;28;20238;-57
2022/12/28 09:36:19;;;;;;;1.63;1.52;;;;;;;7.27;100.00;98790.84;4215696;28;20206;-57
2022/12/28 09:38:20;;;;;;;2.58;1.73;;;;;;;7.33;100.00;98789.13;4200200;28;20229;-56
2022/12/28 09:40:22;;;;;;;4.68;1.88;;;;;;;7.30;100.00;98786.84;4201250;28;20207;-57
2022/12/28 09:42:27;;;;;;;1.50;1.40;;;;;;;7.38;100.00;98783.84;4200205;28;20289;-56
2022/12/28 09:44:41;;;;;;;1.52;1.42;;;;;;;7.37;100.00;98780.28;4200048;28;20214;-56
2022/12/28 09:46:46;;;;;;;1.67;1.58;;;;;;;7.37;100.00;98784.91;4202851;28;20252;-57
2022/12/28 09:48:54;;;;;;;1.45;1.35;;;;;;;7.38;100.00;98790.13;4214881;28;20233;-56
2022/12/28 09:50:56;;;;;;;2.65;1.60;;;;;;;7.47;100.00;98790.66;4189682;28;20650;-57
2022/12/28 09:53:16;;;;;;;9.50;1.67;;;;;;;7.49;100.00;98785.84;4197803;28;20616;-57
2022/12/28 09:55:18;;;;;;;1.83;1.73;;;;;;;7.53;100.00;98784.31;4205569;28;20222;-56
2022/12/28 09:57:21;;;;;;;1.42;1.20;;;;;;;7.55;100.00;98787.69;4216047;28;20297;-57
2022/12/28 09:59:24;;;;;;;2.63;1.45;;;;;;;7.63;100.00;98788.19;4199345;28;20246;-57
2022/12/28 10:01:26;;;;;;;1.58;1.48;;;;;;;7.72;100.00;98775.13;4199761;28;20293;-55
2022/12/28 10:03:39;;;;;;;1.73;1.63;;;;;;;7.81;100.00;98768.34;4194852;28;20306;-57
2022/12/28 10:05:41;;;;;;;2.20;1.58;;;;;;;8.12;100.00;98770.91;4197760;28;20213;-57
2022/12/28 10:07:42;;;;;;;1.65;1.55;;;;;;;8.28;100.00;98775.78;4189106;28;20294;-55
2022/12/28 10:09:45;;;;;;;1.17;1.10;;;;;;;8.57;100.00;98772.22;4202813;28;20320;-57
2022/12/28 10:11:47;;;;;;;1.30;1.20;;;;;;;8.81;100.00;98768.53;4198231;28;20199;-55
2022/12/28 10:13:57;;;;;;;1.67;1.27;;;;;;;9.11;100.00;98770.16;4217608;28;20271;-56
2022/12/28 10:15:58;;;;;;;1.83;1.20;;;;;;;9.30;99.91;98765.41;4199934;28;20217;-57